sensor_id;sensor_type;location;lat;lon;timestamp;P1;durP1;ratioP1;P2;durP2;ratioP2
46723;SDS011;32463;48.298;11.620;2022-12-07T11:00:19;14.65;;;7.97;;
46723;SDS011;32463;48.298;11.620;2022-12-07T11:05:25;14.07;;;7.95;;
46723;SDS011;32463;48.298;11.620;2022-12-07T11:13:25;13.40;;;7.55;;
46723;SDS011;32463;48.298;11.620;2022-12-07T11:16:00;9.18;;;6.57;;
46723;SDS011;32463;48.298;11.620;2022-12-07T11:21:57;9.25;;;7.05;;
46723;SDS011;32463;48.298;11.620;2022-12-07T11:24:32;9.70;;;6.90;;
46723;SDS011;32463;48.298;11.620;2022-12-07T11:27:17;9.90;;;6.73;;
46723;SDS011;32463;48.298;11.620;2022-12-07T11:29:59;9.45;;;6.85;;
46723;SDS011;32463;48.298;11.620;2022-12-07T11:35:45;8.63;;;6.45;;
46723;SDS011;32463;48.298;11.620;2022-12-07T11:38:35;11.52;;;7.18;;
46723;SDS011;32463;48.298;11.620;2022-12-07T11:41:08;9.93;;;7.72;;
46723;SDS011;32463;48.298;11.620;2022-12-07T11:46:57;12.98;;;7.15;;
46723;SDS011;32463;48.298;11.620;2022-12-07T11:49:42;10.05;;;7.10;;
46723;SDS011;32463;48.298;11.620;2022-12-07T11:52:13;11.93;;;7.20;;
46723;SDS011;32463;48.298;11.620;2022-12-07T11:54:46;8.85;;;6.53;;
46723;SDS011;32463;48.298;11.620;2022-12-07T11:57:20;11.50;;;7.28;;
46723;SDS011;32463;48.298;11.620;2022-12-07T11:59:52;11.18;;;7.05;;
46723;SDS011;32463;48.298;11.620;2022-12-07T12:02:28;9.40;;;6.07;;
46723;SDS011;32463;48.298;11.620;2022-12-07T12:07:32;10.40;;;7.57;;
46723;SDS011;32463;48.298;11.620;2022-12-07T12:10:13;10.43;;;6.95;;
46723;SDS011;32463;48.298;11.620;2022-12-07T12:15:27;11.52;;;7.47;;
46723;SDS011;32463;48.298;11.620;2022-12-07T12:23:27;14.27;;;7.38;;
46723;SDS011;32463;48.298;11.620;2022-12-07T12:26:21;12.55;;;7.43;;
46723;SDS011;32463;48.298;11.620;2022-12-07T12:31:28;11.20;;;7.68;;
46723;SDS011;32463;48.298;11.620;2022-12-07T12:34:02;12.82;;;7.40;;
46723;SDS011;32463;48.298;11.620;2022-12-07T12:39:10;11.68;;;7.50;;
46723;SDS011;32463;48.298;11.620;2022-12-07T12:46:57;12.30;;;7.75;;
46723;SDS011;32463;48.298;11.620;2022-12-07T12:49:39;14.48;;;8.23;;
46723;SDS011;32463;48.298;11.620;2022-12-07T12:57:33;15.93;;;8.07;;
46723;SDS011;32463;48.298;11.620;2022-12-07T13:00:01;15.65;;;7.50;;
46723;SDS011;32463;48.298;11.620;2022-12-07T13:02:48;13.05;;;8.05;;
46723;SDS011;32463;48.298;11.620;2022-12-07T13:05:18;13.55;;;8.40;;
46723;SDS011;32463;48.298;11.620;2022-12-07T13:07:51;12.50;;;8.30;;
46723;SDS011;32463;48.298;11.620;2022-12-07T13:28:41;20.05;;;10.65;;
46723;SDS011;32463;48.298;11.620;2022-12-07T13:33:49;11.05;;;7.30;;
46723;SDS011;32463;48.298;11.620;2022-12-07T13:38:48;12.30;;;6.53;;
46723;SDS011;32463;48.298;11.620;2022-12-07T13:41:20;11.35;;;6.95;;
46723;SDS011;32463;48.298;11.620;2022-12-07T13:43:50;11.63;;;7.15;;
46723;SDS011;32463;48.298;11.620;2022-12-07T13:46:23;10.88;;;6.13;;
46723;SDS011;32463;48.298;11.620;2022-12-07T13:48:55;10.52;;;6.45;;
46723;SDS011;32463;48.298;11.620;2022-12-07T13:51:23;10.80;;;6.80;;
46723;SDS011;32463;48.298;11.620;2022-12-07T13:53:52;11.13;;;6.88;;
46723;SDS011;32463;48.298;11.620;2022-12-07T13:56:27;11.27;;;7.05;;
46723;SDS011;32463;48.298;11.620;2022-12-07T13:58:59;11.80;;;6.88;;
46723;SDS011;32463;48.298;11.620;2022-12-07T14:01:26;9.73;;;6.20;;
46723;SDS011;32463;48.298;11.620;2022-12-07T14:03:54;10.27;;;6.68;;
46723;SDS011;32463;48.298;11.620;2022-12-07T14:06:23;12.63;;;6.40;;
46723;SDS011;32463;48.298;11.620;2022-12-07T14:09:07;10.55;;;5.75;;
46723;SDS011;32463;48.298;11.620;2022-12-07T14:11:47;12.35;;;6.80;;
46723;SDS011;32463;48.298;11.620;2022-12-07T14:14:18;10.38;;;6.50;;
46723;SDS011;32463;48.298;11.620;2022-12-07T14:17:12;11.35;;;6.00;;
46723;SDS011;32463;48.298;11.620;2022-12-07T14:19:51;11.00;;;6.35;;
46723;SDS011;32463;48.298;11.620;2022-12-07T14:22:33;27.23;;;14.23;;
46723;SDS011;32463;48.298;11.620;2022-12-07T14:27:46;9.85;;;6.13;;
46723;SDS011;32463;48.298;11.620;2022-12-07T14:30:21;12.13;;;7.68;;
46723;SDS011;32463;48.298;11.620;2022-12-07T14:33:22;10.52;;;6.15;;
46723;SDS011;32463;48.298;11.620;2022-12-07T14:35:42;12.52;;;7.50;;
46723;SDS011;32463;48.298;11.620;2022-12-07T14:38:08;11.73;;;7.18;;
46723;SDS011;32463;48.298;11.620;2022-12-07T14:40:35;9.85;;;6.30;;
46723;SDS011;32463;48.298;11.620;2022-12-07T14:43:02;11.82;;;7.07;;
46723;SDS011;32463;48.298;11.620;2022-12-07T14:45:31;11.32;;;6.45;;
46723;SDS011;32463;48.298;11.620;2022-12-07T14:47:58;12.60;;;7.20;;
46723;SDS011;32463;48.298;11.620;2022-12-07T14:50:24;12.63;;;7.63;;
46723;SDS011;32463;48.298;11.620;2022-12-07T14:52:55;16.38;;;7.82;;
46723;SDS011;32463;48.298;11.620;2022-12-07T14:57:52;11.10;;;7.15;;
46723;SDS011;32463;48.298;11.620;2022-12-07T15:00:19;13.25;;;8.43;;
46723;SDS011;32463;48.298;11.620;2022-12-07T15:02:47;11.98;;;6.93;;
46723;SDS011;32463;48.298;11.620;2022-12-07T15:05:15;11.02;;;7.03;;
46723;SDS011;32463;48.298;11.620;2022-12-07T15:07:42;12.40;;;7.07;;
46723;SDS011;32463;48.298;11.620;2022-12-07T15:10:20;67.72;;;30.02;;
46723;SDS011;32463;48.298;11.620;2022-12-07T15:13:12;11.68;;;7.22;;
46723;SDS011;32463;48.298;11.620;2022-12-07T15:15:55;12.52;;;7.13;;
46723;SDS011;32463;48.298;11.620;2022-12-07T15:18:22;13.45;;;6.75;;
46723;SDS011;32463;48.298;11.620;2022-12-07T15:20:50;12.80;;;7.18;;
46723;SDS011;32463;48.298;11.620;2022-12-07T15:23:16;17.55;;;8.23;;
46723;SDS011;32463;48.298;11.620;2022-12-07T15:25:44;14.50;;;7.50;;
46723;SDS011;32463;48.298;11.620;2022-12-07T15:28:13;16.20;;;8.68;;
46723;SDS011;32463;48.298;11.620;2022-12-07T15:30:40;19.98;;;9.05;;
46723;SDS011;32463;48.298;11.620;2022-12-07T15:33:08;23.35;;;10.20;;
46723;SDS011;32463;48.298;11.620;2022-12-07T15:35:42;13.85;;;8.48;;
46723;SDS011;32463;48.298;11.620;2022-12-07T15:38:11;15.68;;;8.80;;
46723;SDS011;32463;48.298;11.620;2022-12-07T15:40:37;17.83;;;9.38;;
46723;SDS011;32463;48.298;11.620;2022-12-07T15:43:04;21.05;;;9.98;;
46723;SDS011;32463;48.298;11.620;2022-12-07T15:45:51;23.98;;;10.68;;
46723;SDS011;32463;48.298;11.620;2022-12-07T15:48:16;19.23;;;11.07;;
46723;SDS011;32463;48.298;11.620;2022-12-07T15:50:44;18.17;;;10.05;;
46723;SDS011;32463;48.298;11.620;2022-12-07T15:53:12;19.02;;;9.38;;
46723;SDS011;32463;48.298;11.620;2022-12-07T15:55:39;15.05;;;9.05;;
46723;SDS011;32463;48.298;11.620;2022-12-07T15:58:06;17.50;;;8.43;;
46723;SDS011;32463;48.298;11.620;2022-12-07T16:00:34;16.95;;;8.95;;
46723;SDS011;32463;48.298;11.620;2022-12-07T16:03:01;15.07;;;8.88;;
46723;SDS011;32463;48.298;11.620;2022-12-07T16:05:28;14.70;;;8.32;;
46723;SDS011;32463;48.298;11.620;2022-12-07T16:07:54;14.13;;;8.10;;
46723;SDS011;32463;48.298;11.620;2022-12-07T16:10:21;14.60;;;8.85;;
46723;SDS011;32463;48.298;11.620;2022-12-07T16:12:47;15.88;;;8.40;;
46723;SDS011;32463;48.298;11.620;2022-12-07T16:15:14;13.45;;;8.20;;
46723;SDS011;32463;48.298;11.620;2022-12-07T16:17:40;14.70;;;8.15;;
46723;SDS011;32463;48.298;11.620;2022-12-07T16:20:06;19.85;;;8.93;;
46723;SDS011;32463;48.298;11.620;2022-12-07T16:22:35;15.55;;;8.77;;
46723;SDS011;32463;48.298;11.620;2022-12-07T16:25:05;15.73;;;8.30;;
46723;SDS011;32463;48.298;11.620;2022-12-07T16:27:32;15.00;;;8.85;;
46723;SDS011;32463;48.298;11.620;2022-12-07T16:29:58;15.02;;;9.18;;
46723;SDS011;32463;48.298;11.620;2022-12-07T16:32:25;17.30;;;8.68;;
46723;SDS011;32463;48.298;11.620;2022-12-07T16:34:51;16.35;;;8.75;;
46723;SDS011;32463;48.298;11.620;2022-12-07T16:37:18;17.02;;;8.93;;
46723;SDS011;32463;48.298;11.620;2022-12-07T16:39:44;19.42;;;8.80;;
46723;SDS011;32463;48.298;11.620;2022-12-07T16:42:11;16.13;;;8.88;;
46723;SDS011;32463;48.298;11.620;2022-12-07T16:44:37;20.88;;;8.50;;
46723;SDS011;32463;48.298;11.620;2022-12-07T16:47:04;16.10;;;8.05;;
46723;SDS011;32463;48.298;11.620;2022-12-07T16:49:30;16.75;;;9.38;;
46723;SDS011;32463;48.298;11.620;2022-12-07T16:51:57;15.63;;;8.90;;
46723;SDS011;32463;48.298;11.620;2022-12-07T16:54:23;17.67;;;9.32;;
46723;SDS011;32463;48.298;11.620;2022-12-07T16:56:50;17.55;;;9.40;;
46723;SDS011;32463;48.298;11.620;2022-12-07T16:59:16;18.90;;;9.20;;
46723;SDS011;32463;48.298;11.620;2022-12-07T17:01:42;17.38;;;10.25;;
46723;SDS011;32463;48.298;11.620;2022-12-07T17:04:09;24.20;;;10.48;;
46723;SDS011;32463;48.298;11.620;2022-12-07T17:06:35;21.05;;;12.07;;
46723;SDS011;32463;48.298;11.620;2022-12-07T17:09:02;21.13;;;10.90;;
46723;SDS011;32463;48.298;11.620;2022-12-07T17:11:29;22.38;;;12.25;;
46723;SDS011;32463;48.298;11.620;2022-12-07T17:13:57;18.35;;;10.18;;
46723;SDS011;32463;48.298;11.620;2022-12-07T17:16:41;20.52;;;10.40;;
46723;SDS011;32463;48.298;11.620;2022-12-07T17:19:08;19.48;;;11.68;;
46723;SDS011;32463;48.298;11.620;2022-12-07T17:21:36;23.27;;;12.90;;
46723;SDS011;32463;48.298;11.620;2022-12-07T17:24:04;20.38;;;11.30;;
46723;SDS011;32463;48.298;11.620;2022-12-07T17:26:32;25.25;;;12.70;;
46723;SDS011;32463;48.298;11.620;2022-12-07T17:28:59;23.65;;;12.15;;
46723;SDS011;32463;48.298;11.620;2022-12-07T17:31:26;22.48;;;11.30;;
46723;SDS011;32463;48.298;11.620;2022-12-07T17:33:53;25.23;;;12.23;;
46723;SDS011;32463;48.298;11.620;2022-12-07T17:36:20;21.13;;;11.23;;
46723;SDS011;32463;48.298;11.620;2022-12-07T17:38:48;22.58;;;11.70;;
46723;SDS011;32463;48.298;11.620;2022-12-07T17:41:17;77.68;;;38.58;;
46723;SDS011;32463;48.298;11.620;2022-12-07T17:46:25;25.88;;;14.93;;
46723;SDS011;32463;48.298;11.620;2022-12-07T17:48:55;28.60;;;14.65;;
46723;SDS011;32463;48.298;11.620;2022-12-07T17:51:23;26.63;;;14.32;;
46723;SDS011;32463;48.298;11.620;2022-12-07T17:54:07;27.83;;;13.30;;
46723;SDS011;32463;48.298;11.620;2022-12-07T17:56:34;28.90;;;16.50;;
46723;SDS011;32463;48.298;11.620;2022-12-07T17:59:02;24.58;;;14.52;;
46723;SDS011;32463;48.298;11.620;2022-12-07T18:01:29;25.92;;;14.60;;
46723;SDS011;32463;48.298;11.620;2022-12-07T18:03:55;25.40;;;15.80;;
46723;SDS011;32463;48.298;11.620;2022-12-07T18:06:22;27.42;;;15.75;;
46723;SDS011;32463;48.298;11.620;2022-12-07T18:08:49;21.83;;;12.68;;
46723;SDS011;32463;48.298;11.620;2022-12-07T18:11:15;23.25;;;13.13;;
46723;SDS011;32463;48.298;11.620;2022-12-07T18:13:42;28.52;;;14.30;;
46723;SDS011;32463;48.298;11.620;2022-12-07T18:16:17;25.98;;;14.68;;
46723;SDS011;32463;48.298;11.620;2022-12-07T18:18:45;32.92;;;18.38;;
46723;SDS011;32463;48.298;11.620;2022-12-07T18:21:14;33.60;;;18.75;;
46723;SDS011;32463;48.298;11.620;2022-12-07T18:23:44;29.42;;;16.48;;
46723;SDS011;32463;48.298;11.620;2022-12-07T18:26:15;30.38;;;17.27;;
46723;SDS011;32463;48.298;11.620;2022-12-07T18:28:42;31.02;;;16.75;;
46723;SDS011;32463;48.298;11.620;2022-12-07T18:31:10;29.55;;;16.65;;
46723;SDS011;32463;48.298;11.620;2022-12-07T18:33:38;22.88;;;13.75;;
46723;SDS011;32463;48.298;11.620;2022-12-07T18:36:05;24.08;;;14.45;;
46723;SDS011;32463;48.298;11.620;2022-12-07T18:38:32;24.40;;;13.60;;
46723;SDS011;32463;48.298;11.620;2022-12-07T18:40:59;27.60;;;14.80;;
46723;SDS011;32463;48.298;11.620;2022-12-07T18:43:27;21.98;;;12.65;;
46723;SDS011;32463;48.298;11.620;2022-12-07T18:45:53;27.92;;;14.07;;
46723;SDS011;32463;48.298;11.620;2022-12-07T18:48:20;25.58;;;13.00;;
46723;SDS011;32463;48.298;11.620;2022-12-07T18:50:58;21.58;;;11.98;;
46723;SDS011;32463;48.298;11.620;2022-12-07T18:53:29;26.10;;;12.73;;
46723;SDS011;32463;48.298;11.620;2022-12-07T18:56:01;27.35;;;13.43;;
46723;SDS011;32463;48.298;11.620;2022-12-07T18:58:35;27.45;;;13.73;;
46723;SDS011;32463;48.298;11.620;2022-12-07T19:01:02;30.00;;;15.00;;
46723;SDS011;32463;48.298;11.620;2022-12-07T19:03:28;44.00;;;22.98;;
46723;SDS011;32463;48.298;11.620;2022-12-07T19:05:56;38.75;;;21.02;;
46723;SDS011;32463;48.298;11.620;2022-12-07T19:08:23;33.40;;;18.95;;
46723;SDS011;32463;48.298;11.620;2022-12-07T19:10:50;31.25;;;16.95;;
46723;SDS011;32463;48.298;11.620;2022-12-07T19:13:17;31.10;;;15.57;;
46723;SDS011;32463;48.298;11.620;2022-12-07T19:15:44;33.63;;;16.02;;
46723;SDS011;32463;48.298;11.620;2022-12-07T19:18:10;31.70;;;16.48;;
46723;SDS011;32463;48.298;11.620;2022-12-07T19:20:37;35.50;;;17.77;;
46723;SDS011;32463;48.298;11.620;2022-12-07T19:23:04;34.55;;;17.02;;
46723;SDS011;32463;48.298;11.620;2022-12-07T19:25:30;25.15;;;13.68;;
46723;SDS011;32463;48.298;11.620;2022-12-07T19:27:57;25.70;;;13.90;;
46723;SDS011;32463;48.298;11.620;2022-12-07T19:30:23;23.38;;;13.30;;
46723;SDS011;32463;48.298;11.620;2022-12-07T19:32:49;25.48;;;13.45;;
46723;SDS011;32463;48.298;11.620;2022-12-07T19:35:16;23.90;;;13.30;;
46723;SDS011;32463;48.298;11.620;2022-12-07T19:37:43;23.90;;;13.05;;
46723;SDS011;32463;48.298;11.620;2022-12-07T19:40:09;27.38;;;13.35;;
46723;SDS011;32463;48.298;11.620;2022-12-07T19:42:36;27.30;;;12.75;;
46723;SDS011;32463;48.298;11.620;2022-12-07T19:45:02;29.40;;;14.38;;
46723;SDS011;32463;48.298;11.620;2022-12-07T19:47:29;24.13;;;13.18;;
46723;SDS011;32463;48.298;11.620;2022-12-07T19:49:56;27.30;;;14.43;;
46723;SDS011;32463;48.298;11.620;2022-12-07T19:52:22;27.83;;;13.57;;
46723;SDS011;32463;48.298;11.620;2022-12-07T19:54:50;24.90;;;13.48;;
46723;SDS011;32463;48.298;11.620;2022-12-07T19:57:17;25.05;;;13.60;;
46723;SDS011;32463;48.298;11.620;2022-12-07T19:59:43;26.25;;;13.40;;
46723;SDS011;32463;48.298;11.620;2022-12-07T20:02:11;27.27;;;14.02;;
46723;SDS011;32463;48.298;11.620;2022-12-07T20:04:39;28.95;;;14.10;;
46723;SDS011;32463;48.298;11.620;2022-12-07T20:07:06;23.83;;;13.55;;
46723;SDS011;32463;48.298;11.620;2022-12-07T20:09:33;26.17;;;13.65;;
46723;SDS011;32463;48.298;11.620;2022-12-07T20:11:59;29.55;;;15.00;;
46723;SDS011;32463;48.298;11.620;2022-12-07T20:14:43;28.17;;;14.73;;
46723;SDS011;32463;48.298;11.620;2022-12-07T20:17:10;24.83;;;13.88;;
46723;SDS011;32463;48.298;11.620;2022-12-07T20:19:37;25.02;;;14.52;;
46723;SDS011;32463;48.298;11.620;2022-12-07T20:22:04;26.52;;;15.02;;
46723;SDS011;32463;48.298;11.620;2022-12-07T20:24:31;28.20;;;15.32;;
46723;SDS011;32463;48.298;11.620;2022-12-07T20:26:59;29.58;;;15.25;;
46723;SDS011;32463;48.298;11.620;2022-12-07T20:29:25;28.33;;;14.52;;
46723;SDS011;32463;48.298;11.620;2022-12-07T20:31:52;27.35;;;14.20;;
46723;SDS011;32463;48.298;11.620;2022-12-07T20:34:20;38.83;;;15.73;;
46723;SDS011;32463;48.298;11.620;2022-12-07T20:36:47;31.17;;;16.75;;
46723;SDS011;32463;48.298;11.620;2022-12-07T20:39:13;31.85;;;16.42;;
46723;SDS011;32463;48.298;11.620;2022-12-07T20:41:40;31.02;;;16.88;;
46723;SDS011;32463;48.298;11.620;2022-12-07T20:44:24;31.08;;;16.50;;
46723;SDS011;32463;48.298;11.620;2022-12-07T20:46:51;34.35;;;17.63;;
46723;SDS011;32463;48.298;11.620;2022-12-07T20:49:18;31.52;;;17.35;;
46723;SDS011;32463;48.298;11.620;2022-12-07T20:51:45;35.95;;;16.90;;
46723;SDS011;32463;48.298;11.620;2022-12-07T20:54:12;27.15;;;15.20;;
46723;SDS011;32463;48.298;11.620;2022-12-07T20:56:39;28.23;;;15.30;;
46723;SDS011;32463;48.298;11.620;2022-12-07T20:59:07;29.98;;;16.30;;
46723;SDS011;32463;48.298;11.620;2022-12-07T21:01:38;28.15;;;15.07;;
46723;SDS011;32463;48.298;11.620;2022-12-07T21:04:04;26.50;;;15.02;;
46723;SDS011;32463;48.298;11.620;2022-12-07T21:06:31;29.70;;;16.13;;
46723;SDS011;32463;48.298;11.620;2022-12-07T21:08:58;32.00;;;16.40;;
46723;SDS011;32463;48.298;11.620;2022-12-07T21:11:26;30.05;;;15.85;;
46723;SDS011;32463;48.298;11.620;2022-12-07T21:13:53;28.35;;;15.25;;
46723;SDS011;32463;48.298;11.620;2022-12-07T21:16:21;25.45;;;14.20;;
46723;SDS011;32463;48.298;11.620;2022-12-07T21:18:49;27.00;;;13.88;;
46723;SDS011;32463;48.298;11.620;2022-12-07T21:21:17;25.42;;;14.75;;
46723;SDS011;32463;48.298;11.620;2022-12-07T21:23:48;35.70;;;17.65;;
46723;SDS011;32463;48.298;11.620;2022-12-07T21:26:20;67.38;;;33.70;;
46723;SDS011;32463;48.298;11.620;2022-12-07T21:28:48;58.15;;;25.08;;
46723;SDS011;32463;48.298;11.620;2022-12-07T21:31:15;44.30;;;22.23;;
46723;SDS011;32463;48.298;11.620;2022-12-07T21:33:43;36.42;;;18.60;;
46723;SDS011;32463;48.298;11.620;2022-12-07T21:36:10;33.97;;;16.85;;
46723;SDS011;32463;48.298;11.620;2022-12-07T21:38:39;32.00;;;15.25;;
46723;SDS011;32463;48.298;11.620;2022-12-07T21:43:45;27.13;;;16.05;;
46723;SDS011;32463;48.298;11.620;2022-12-07T21:46:12;27.27;;;14.65;;
46723;SDS011;32463;48.298;11.620;2022-12-07T21:48:40;32.38;;;14.73;;
46723;SDS011;32463;48.298;11.620;2022-12-07T21:51:10;25.13;;;13.40;;
46723;SDS011;32463;48.298;11.620;2022-12-07T21:53:39;22.38;;;13.40;;
46723;SDS011;32463;48.298;11.620;2022-12-07T21:56:49;26.27;;;13.60;;
46723;SDS011;32463;48.298;11.620;2022-12-07T21:59:02;22.58;;;12.75;;
46723;SDS011;32463;48.298;11.620;2022-12-07T22:01:34;24.45;;;13.48;;
46723;SDS011;32463;48.298;11.620;2022-12-07T22:04:04;25.95;;;13.63;;
46723;SDS011;32463;48.298;11.620;2022-12-07T22:06:36;25.33;;;13.88;;
46723;SDS011;32463;48.298;11.620;2022-12-07T22:09:03;37.58;;;14.55;;
46723;SDS011;32463;48.298;11.620;2022-12-07T22:11:31;27.17;;;14.45;;
46723;SDS011;32463;48.298;11.620;2022-12-07T22:13:58;26.95;;;13.18;;
46723;SDS011;32463;48.298;11.620;2022-12-07T22:16:46;24.75;;;13.38;;
46723;SDS011;32463;48.298;11.620;2022-12-07T22:19:16;25.00;;;13.63;;
46723;SDS011;32463;48.298;11.620;2022-12-07T22:21:42;23.45;;;12.85;;
46723;SDS011;32463;48.298;11.620;2022-12-07T22:24:09;25.67;;;13.05;;
46723;SDS011;32463;48.298;11.620;2022-12-07T22:26:37;25.13;;;13.43;;
46723;SDS011;32463;48.298;11.620;2022-12-07T22:29:04;27.70;;;13.18;;
46723;SDS011;32463;48.298;11.620;2022-12-07T22:31:31;27.77;;;13.40;;
46723;SDS011;32463;48.298;11.620;2022-12-07T22:33:58;26.58;;;13.98;;
46723;SDS011;32463;48.298;11.620;2022-12-07T22:36:24;24.58;;;12.27;;
46723;SDS011;32463;48.298;11.620;2022-12-07T22:38:52;20.92;;;12.27;;
46723;SDS011;32463;48.298;11.620;2022-12-07T22:43:49;27.42;;;13.18;;
46723;SDS011;32463;48.298;11.620;2022-12-07T22:46:16;27.23;;;13.68;;
46723;SDS011;32463;48.298;11.620;2022-12-07T22:48:43;26.83;;;14.48;;
46723;SDS011;32463;48.298;11.620;2022-12-07T22:51:26;23.90;;;13.40;;
46723;SDS011;32463;48.298;11.620;2022-12-07T22:53:54;25.20;;;12.93;;
46723;SDS011;32463;48.298;11.620;2022-12-07T22:56:23;24.60;;;12.90;;
46723;SDS011;32463;48.298;11.620;2022-12-07T22:58:50;23.98;;;12.57;;
46723;SDS011;32463;48.298;11.620;2022-12-07T23:01:17;22.58;;;12.27;;
46723;SDS011;32463;48.298;11.620;2022-12-07T23:03:45;25.38;;;13.48;;
46723;SDS011;32463;48.298;11.620;2022-12-07T23:06:17;22.17;;;12.13;;
46723;SDS011;32463;48.298;11.620;2022-12-07T23:08:44;22.02;;;12.43;;
46723;SDS011;32463;48.298;11.620;2022-12-07T23:11:12;25.77;;;12.52;;
46723;SDS011;32463;48.298;11.620;2022-12-07T23:14:01;24.02;;;13.10;;
46723;SDS011;32463;48.298;11.620;2022-12-07T23:16:27;21.58;;;12.15;;
46723;SDS011;32463;48.298;11.620;2022-12-07T23:18:54;23.20;;;12.43;;
46723;SDS011;32463;48.298;11.620;2022-12-07T23:21:21;22.67;;;12.73;;
46723;SDS011;32463;48.298;11.620;2022-12-07T23:23:47;20.85;;;11.90;;
46723;SDS011;32463;48.298;11.620;2022-12-07T23:26:14;27.80;;;13.52;;
46723;SDS011;32463;48.298;11.620;2022-12-07T23:28:40;25.25;;;12.50;;
46723;SDS011;32463;48.298;11.620;2022-12-07T23:31:11;27.42;;;13.77;;
46723;SDS011;32463;48.298;11.620;2022-12-07T23:33:39;24.50;;;13.75;;
46723;SDS011;32463;48.298;11.620;2022-12-07T23:36:12;24.13;;;12.60;;
46723;SDS011;32463;48.298;11.620;2022-12-07T23:38:41;24.95;;;12.65;;
46723;SDS011;32463;48.298;11.620;2022-12-07T23:41:10;22.73;;;12.23;;
46723;SDS011;32463;48.298;11.620;2022-12-07T23:43:38;23.38;;;12.05;;
46723;SDS011;32463;48.298;11.620;2022-12-07T23:46:06;20.67;;;11.98;;
46723;SDS011;32463;48.298;11.620;2022-12-07T23:48:34;22.55;;;12.43;;
46723;SDS011;32463;48.298;11.620;2022-12-07T23:51:02;25.52;;;13.68;;
46723;SDS011;32463;48.298;11.620;2022-12-07T23:53:31;28.77;;;14.45;;
46723;SDS011;32463;48.298;11.620;2022-12-07T23:55:58;26.08;;;14.10;;
46723;SDS011;32463;48.298;11.620;2022-12-07T23:58:25;26.98;;;13.23;;
